createdAt,value
2018-11-02T10:07:51.328Z,65.60
2018-11-02T10:10:20.505Z,64.60
2018-11-02T10:12:49.877Z,64.70
2018-11-02T10:15:19.535Z,64.00
2018-11-02T10:17:48.711Z,63.40
2018-11-02T10:20:17.999Z,63.10
2018-11-02T10:22:47.501Z,62.80
2018-11-02T10:25:16.758Z,62.60
2018-11-02T10:27:45.908Z,62.40
2018-11-02T10:30:15.662Z,62.20
2018-11-02T10:32:47.868Z,62.00
2018-11-02T10:35:17.307Z,61.80
2018-11-02T10:37:46.825Z,61.60
2018-11-02T10:40:17.462Z,61.40
2018-11-02T10:42:52.054Z,61.30
2018-11-02T10:45:22.331Z,61.40
2018-11-02T10:47:51.614Z,61.20
2018-11-02T10:50:21.722Z,61.10
2018-11-02T10:52:50.801Z,61.10
2018-11-02T10:55:19.905Z,60.90
2018-11-02T10:57:49.994Z,60.90
2018-11-02T11:00:24.609Z,60.90
2018-11-02T11:02:54.428Z,60.70
2018-11-02T11:05:23.452Z,60.80
2018-11-02T11:07:52.552Z,60.80
2018-11-02T11:10:22.614Z,60.60
2018-11-02T11:12:51.963Z,60.50
2018-11-02T11:15:21.263Z,60.50
2018-11-02T11:17:51.144Z,60.40
2018-11-02T11:20:20.285Z,60.40
2018-11-02T11:22:49.608Z,60.50
2018-11-02T11:25:19.268Z,60.40
2018-11-02T11:27:48.485Z,60.50
2018-11-02T11:30:19.017Z,60.40
2018-11-02T11:32:49.613Z,60.30
2018-11-02T11:35:19.637Z,60.20
2018-11-02T11:37:48.645Z,60.30
2018-11-02T11:40:19.405Z,60.30
2018-11-02T11:42:48.759Z,60.20
2018-11-02T11:45:18.887Z,60.20
2018-11-02T11:47:48.471Z,60.20
2018-11-02T11:50:21.618Z,60.40
2018-11-02T11:52:52.761Z,60.40
2018-11-02T11:55:21.968Z,60.40
2018-11-02T11:57:52.027Z,60.40
2018-11-02T12:00:23.280Z,60.30
2018-11-02T12:02:53.193Z,60.30
2018-11-02T12:05:23.318Z,60.30
2018-11-02T12:07:52.540Z,60.40
2018-11-02T12:10:24.157Z,60.30
2018-11-02T12:12:54.859Z,60.20
2018-11-02T12:15:25.469Z,60.20
2018-11-02T12:17:54.324Z,60.10
2018-11-02T12:20:31.439Z,60.10
2018-11-02T12:23:02.433Z,60.10
2018-11-02T12:25:31.928Z,60.10
2018-11-02T12:28:01.346Z,60.10
2018-11-02T12:30:30.650Z,60.20
2018-11-02T12:33:00.449Z,60.10
2018-11-02T12:35:29.746Z,60.10
2018-11-02T12:37:58.769Z,60.10
2018-11-02T12:40:28.366Z,60.20
2018-11-02T12:42:58.497Z,60.30
2018-11-02T12:45:29.550Z,60.20
2018-11-02T12:47:58.990Z,60.20
2018-11-02T12:50:29.136Z,60.10
2018-11-02T12:52:59.153Z,60.00
2018-11-02T12:55:30.059Z,60.20
2018-11-02T12:58:00.352Z,61.10
2018-11-02T13:00:29.839Z,60.40
2018-11-02T13:02:59.064Z,60.40
2018-11-02T13:05:28.545Z,60.40
2018-11-02T13:07:58.093Z,60.00
2018-11-02T13:10:27.394Z,60.10
2018-11-02T13:12:56.658Z,60.20
2018-11-02T13:15:26.102Z,60.30
2018-11-02T13:17:55.580Z,60.70
2018-11-02T13:20:24.882Z,61.10
2018-11-02T13:22:54.184Z,61.20
2018-11-02T13:25:23.842Z,61.20
2018-11-02T13:27:53.412Z,61.50
2018-11-02T13:30:22.648Z,61.80
2018-11-02T13:32:51.942Z,62.30
2018-11-02T13:35:21.189Z,62.70
2018-11-02T13:37:50.813Z,62.80
2018-11-02T13:40:20.346Z,62.70
2018-11-02T13:42:49.783Z,62.80
2018-11-02T13:45:19.293Z,62.90
2018-11-02T13:47:48.708Z,63.10
2018-11-02T13:50:17.790Z,62.80
2018-11-02T13:52:47.115Z,62.60
2018-11-02T13:55:16.511Z,62.60
2018-11-02T13:57:45.850Z,62.90
2018-11-02T14:00:17.201Z,62.80
2018-11-02T14:02:46.840Z,62.70
2018-11-02T14:05:16.910Z,62.80
2018-11-02T14:07:49.953Z,62.60
2018-11-02T14:10:20.580Z,62.40
2018-11-02T14:12:50.243Z,62.30
2018-11-02T14:15:20.684Z,62.30
2018-11-02T14:17:51.015Z,62.20
2018-11-02T14:20:21.340Z,61.90
2018-11-02T14:22:50.536Z,61.80
2018-11-02T14:25:19.801Z,61.60
2018-11-02T14:27:49.283Z,61.70
2018-11-02T14:30:19.521Z,61.80
2018-11-02T14:32:49.201Z,61.80
2018-11-02T14:35:18.596Z,61.60
2018-11-02T14:37:47.846Z,61.60
2018-11-02T14:40:17.485Z,61.60
2018-11-02T14:42:48.477Z,61.70
2018-11-02T14:45:17.920Z,61.70
2018-11-02T14:47:47.309Z,61.60
2018-11-02T14:50:16.550Z,61.80
2018-11-02T14:52:45.617Z,61.50
2018-11-02T14:55:14.922Z,61.80
2018-11-02T14:57:44.320Z,62.10
2018-11-02T15:00:13.538Z,62.20
2018-11-02T15:02:43.845Z,62.50
2018-11-02T15:05:14.256Z,62.60
2018-11-02T15:07:44.269Z,63.20
2018-11-02T15:10:13.688Z,64.20
2018-11-02T15:12:43.316Z,64.30
2018-11-02T15:15:12.399Z,64.50
2018-11-02T15:17:42.209Z,64.60
2018-11-02T15:20:13.502Z,64.90
2018-11-02T15:22:43.231Z,64.90
2018-11-02T15:25:12.382Z,65.20
2018-11-02T15:27:42.029Z,65.20
2018-11-02T15:30:13.606Z,65.70
2018-11-02T15:32:43.825Z,65.90
2018-11-02T15:35:15.565Z,66.00
2018-11-02T15:37:45.094Z,66.20
2018-11-02T15:40:14.687Z,65.40
2018-11-02T15:42:44.248Z,64.90
2018-11-02T15:45:15.006Z,65.30
2018-11-02T15:47:45.912Z,65.00
2018-11-02T15:50:15.224Z,64.90
2018-11-02T15:52:44.380Z,64.60
2018-11-02T15:55:13.614Z,64.70
2018-11-02T15:57:42.796Z,64.70
2018-11-02T16:00:16.064Z,65.00
2018-11-02T16:02:46.835Z,65.30
2018-11-02T16:05:15.975Z,65.30
2018-11-02T16:07:45.078Z,65.20
2018-11-02T16:10:14.469Z,65.00
2018-11-02T16:12:44.168Z,65.10
2018-11-02T16:15:13.683Z,65.30
2018-11-02T16:17:42.861Z,65.40
2018-11-02T16:20:13.474Z,65.80
2018-11-02T16:22:43.567Z,65.50
2018-11-02T16:25:13.208Z,65.60
2018-11-02T16:27:42.893Z,65.40
2018-11-02T16:30:12.752Z,65.70
2018-11-02T16:32:42.009Z,65.80
2018-11-02T16:35:11.591Z,65.60
2018-11-02T16:37:41.066Z,65.40
2018-11-02T16:40:12.561Z,65.50
2018-11-02T16:42:42.041Z,65.70
2018-11-02T16:45:12.581Z,65.50
2018-11-02T16:47:42.327Z,65.70
2018-11-02T16:50:12.675Z,65.80
2018-11-02T16:52:42.839Z,65.60
2018-11-02T16:55:12.077Z,65.80
2018-11-02T16:57:41.347Z,65.90
2018-11-02T17:00:15.833Z,66.30
2018-11-02T17:02:45.924Z,66.20
2018-11-02T17:05:15.341Z,66.20
2018-11-02T17:07:44.793Z,65.90
2018-11-02T17:10:14.786Z,66.20
2018-11-02T17:12:44.299Z,66.10
2018-11-02T17:15:14.178Z,66.00
2018-11-02T17:17:43.476Z,65.80
2018-11-02T17:20:14.901Z,65.90
2018-11-02T17:22:44.223Z,65.80
2018-11-02T17:25:13.871Z,66.20
2018-11-02T17:27:43.378Z,66.40
2018-11-02T17:30:15.647Z,66.10
2018-11-02T17:32:45.327Z,65.90
2018-11-02T17:35:14.912Z,65.90
2018-11-02T17:37:44.311Z,65.80
2018-11-02T17:40:14.866Z,65.90
2018-11-02T17:42:44.328Z,66.20
2018-11-02T17:45:18.437Z,66.20
2018-11-02T17:47:48.040Z,66.00
2018-11-02T17:50:17.746Z,65.70
2018-11-02T17:52:46.995Z,65.70
2018-11-02T17:55:16.392Z,65.80
2018-11-02T17:57:45.523Z,65.80
2018-11-02T18:00:15.215Z,66.10
2018-11-02T18:02:44.864Z,65.90
2018-11-02T18:05:14.099Z,65.70
2018-11-02T18:07:43.547Z,65.70
2018-11-02T18:10:13.570Z,65.80
2018-11-02T18:12:42.626Z,65.90
2018-11-02T18:15:12.717Z,65.80
2018-11-02T18:17:41.902Z,65.80
2018-11-02T18:20:13.355Z,66.40
2018-11-02T18:22:43.257Z,66.90
2018-11-02T18:25:12.733Z,67.30
2018-11-02T18:27:42.701Z,68.20
2018-11-02T18:30:12.503Z,66.60
2018-11-02T18:32:41.534Z,66.30
2018-11-02T18:35:11.323Z,66.60
2018-11-02T18:37:40.760Z,66.50
2018-11-02T18:40:11.459Z,66.30
2018-11-02T18:42:43.621Z,66.40
2018-11-02T18:45:13.941Z,66.20
2018-11-02T18:47:47.967Z,66.00
2018-11-02T18:50:18.992Z,65.90
2018-11-02T18:52:48.922Z,66.10
2018-11-02T18:55:18.456Z,66.10
2018-11-02T18:57:47.373Z,66.10
2018-11-02T19:00:16.943Z,66.20
2018-11-02T19:02:45.949Z,66.20
2018-11-02T19:05:17.367Z,66.40
2018-11-02T19:07:47.075Z,66.30
2018-11-02T19:10:15.976Z,65.50
2018-11-02T19:12:45.291Z,65.10
2018-11-02T19:15:16.864Z,65.00
2018-11-02T19:17:46.669Z,64.80
2018-11-02T19:20:15.986Z,64.90
2018-11-02T19:22:45.444Z,65.10
2018-11-02T19:25:15.573Z,65.30
2018-11-02T19:27:45.970Z,65.10
2018-11-02T19:30:16.903Z,65.20
2018-11-02T19:32:46.079Z,64.90
2018-11-02T19:35:15.795Z,65.00
2018-11-02T19:37:45.397Z,65.20
2018-11-02T19:40:15.435Z,65.00
2018-11-02T19:42:44.515Z,64.60
2018-11-02T19:45:14.461Z,64.50
2018-11-02T19:47:48.890Z,64.50
2018-11-02T19:50:19.265Z,64.70
2018-11-02T19:52:48.752Z,64.80
2018-11-02T19:55:17.870Z,64.70
2018-11-02T19:57:47.398Z,64.70
2018-11-02T20:00:17.349Z,64.60
2018-11-02T20:02:46.549Z,64.70
2018-11-02T20:05:18.493Z,65.10
2018-11-02T20:07:47.570Z,65.00
2018-11-02T20:10:17.830Z,65.00
2018-11-02T20:12:48.326Z,65.30
2018-11-02T20:15:18.027Z,65.00
2018-11-02T20:17:47.428Z,64.70
2018-11-02T20:20:22.056Z,64.50
2018-11-02T20:22:51.795Z,64.50
2018-11-02T20:25:21.024Z,64.00
2018-11-02T20:27:51.019Z,63.80
2018-11-02T20:30:21.672Z,63.60
2018-11-02T20:32:50.920Z,63.50
2018-11-02T20:35:20.230Z,63.30
2018-11-02T20:37:49.925Z,63.40
2018-11-02T20:40:19.785Z,64.30
2018-11-02T20:42:49.882Z,63.50
2018-11-02T20:45:19.626Z,63.50
2018-11-02T20:47:53.222Z,63.30
2018-11-02T20:50:22.372Z,63.20
2018-11-02T20:52:51.991Z,63.20
2018-11-02T20:55:21.946Z,63.40
2018-11-02T20:57:51.264Z,63.40
2018-11-02T21:00:22.588Z,64.10
2018-11-02T21:02:52.444Z,64.00
2018-11-02T21:05:22.031Z,64.00
2018-11-02T21:07:52.156Z,64.00
2018-11-02T21:10:22.085Z,64.10
2018-11-02T21:12:51.605Z,64.40
2018-11-02T21:15:22.186Z,64.40
2018-11-02T21:17:52.129Z,64.50
2018-11-02T21:20:22.622Z,64.60
2018-11-02T21:22:52.556Z,64.70
2018-11-02T21:25:23.484Z,64.70
2018-11-02T21:27:53.758Z,64.80
2018-11-02T21:30:25.197Z,64.90
2018-11-02T21:32:54.675Z,65.00
2018-11-02T21:35:24.668Z,64.90
2018-11-02T21:37:54.182Z,65.10
2018-11-02T21:40:25.119Z,65.10
2018-11-02T21:42:54.792Z,65.10
2018-11-02T21:45:24.901Z,65.00
2018-11-02T21:47:54.015Z,65.10
2018-11-02T21:50:23.862Z,65.20
2018-11-02T21:52:52.951Z,65.20
2018-11-02T21:55:22.369Z,65.20
2018-11-02T21:57:51.726Z,65.10
2018-11-02T22:00:22.206Z,65.20
2018-11-02T22:02:51.391Z,65.10
2018-11-02T22:05:20.552Z,65.40
2018-11-02T22:07:50.679Z,65.10
2018-11-02T22:10:20.315Z,65.10
2018-11-02T22:12:49.708Z,65.00
2018-11-02T22:15:21.372Z,65.00
2018-11-02T22:17:50.885Z,64.90
2018-11-02T22:20:20.010Z,64.80
2018-11-02T22:22:49.136Z,64.80
2018-11-02T22:25:18.471Z,65.70
2018-11-02T22:27:47.595Z,65.00
2018-11-02T22:30:17.604Z,65.00
2018-11-02T22:32:47.084Z,64.90
2018-11-02T22:35:16.422Z,64.90
2018-11-02T22:37:45.769Z,64.90
2018-11-02T22:40:16.217Z,65.00
2018-11-02T22:42:45.414Z,65.00
2018-11-02T22:45:15.211Z,64.80
2018-11-02T22:47:49.691Z,64.70
2018-11-02T22:50:19.957Z,64.70
2018-11-02T22:52:49.213Z,64.70
2018-11-02T22:55:18.584Z,64.60
2018-11-02T22:57:47.836Z,64.70
2018-11-02T23:00:18.028Z,64.50
2018-11-02T23:02:48.206Z,64.50
2018-11-02T23:05:17.591Z,64.60
2018-11-02T23:07:46.845Z,64.50
2018-11-02T23:10:16.266Z,64.40
2018-11-02T23:12:45.980Z,64.40
2018-11-02T23:15:15.288Z,64.40
2018-11-02T23:17:44.511Z,64.50
2018-11-02T23:20:14.840Z,64.50
2018-11-02T23:22:44.029Z,64.50
2018-11-02T23:25:13.820Z,64.50
2018-11-02T23:27:44.594Z,64.40
2018-11-02T23:30:14.012Z,64.30
2018-11-02T23:32:42.991Z,64.30
2018-11-02T23:35:12.221Z,64.20
2018-11-02T23:37:41.550Z,64.30
2018-11-02T23:40:12.085Z,64.20
2018-11-02T23:42:41.936Z,64.10
2018-11-02T23:45:11.893Z,64.00
2018-11-02T23:47:45.580Z,64.10
2018-11-02T23:50:14.752Z,64.90
2018-11-02T23:52:43.949Z,64.00
2018-11-02T23:55:13.315Z,64.00
2018-11-02T23:57:42.778Z,63.90
